Time,TemperatureF,DewpointF,PressureIn,WindDirection,WindDirectionDegrees,WindSpeedMPH,WindSpeedGustMPH,Humidity,HourlyPrecipIn,Conditions,Clouds,dailyrainin,SolarRadiationWatts/m^2,SoftwareType,DateUTC
2013-01-16 00:02:00,-1.0,-9.0,-100.00,NW,305,2.0,5.0,67,0.00,,,0.01,1.000000,,2013-01-16 07:02:00,
2013-01-16 00:11:00,-1.0,-9.0,-100.00,NW,305,2.0,5.0,67,0.00,,,0.01,1.000000,,2013-01-16 07:11:00,
2013-01-16 00:33:00,-2.0,-10.0,-100.00,NW,320,3.0,5.0,69,0.00,,,0.01,1.000000,,2013-01-16 07:33:00,
2013-01-16 00:42:00,-2.0,-10.0,-100.00,NW,320,3.0,5.0,69,0.00,,,0.01,1.000000,,2013-01-16 07:42:00,
2013-01-16 00:52:00,-2.0,-10.0,-100.00,NW,320,3.0,5.0,69,0.00,,,0.01,1.000000,,2013-01-16 07:52:00,
2013-01-16 01:02:00,-2.0,-10.0,-100.00,NW,320,3.0,5.0,69,0.00,,,0.01,1.000000,,2013-01-16 08:02:00,
2013-01-16 01:11:00,-2.0,-10.0,-100.00,NW,320,3.0,5.0,69,0.00,,,0.01,1.000000,,2013-01-16 08:11:00,
2013-01-16 01:42:00,-2.0,-10.0,-100.00,WNW,301,2.0,5.0,68,0.00,,,0.01,1.000000,,2013-01-16 08:42:00,
2013-01-16 01:52:00,-2.0,-10.0,-100.00,WNW,301,2.0,5.0,68,0.00,,,0.01,1.000000,,2013-01-16 08:52:00,
2013-01-16 02:02:00,-2.0,-10.0,-100.00,WNW,301,2.0,5.0,68,0.00,,,0.01,1.000000,,2013-01-16 09:02:00,
2013-01-16 02:11:00,-2.0,-10.0,-100.00,WNW,301,2.0,5.0,68,0.00,,,0.01,1.000000,,2013-01-16 09:11:00,
2013-01-16 02:33:00,-4.0,-12.0,-100.00,NW,311,2.0,5.0,69,0.00,,,0.01,1.000000,,2013-01-16 09:33:00,
2013-01-16 02:43:00,-4.0,-12.0,-100.00,NW,311,2.0,5.0,69,0.00,,,0.01,1.000000,,2013-01-16 09:43:00,
2013-01-16 02:53:00,-4.0,-12.0,-100.00,NW,311,2.0,5.0,69,0.00,,,0.01,1.000000,,2013-01-16 09:53:00,
2013-01-16 03:02:00,-4.0,-12.0,-100.00,NW,311,2.0,5.0,69,0.00,,,0.01,1.000000,,2013-01-16 10:02:00,
2013-01-16 03:43:00,-5.0,-12.0,-100.00,NW,307,3.0,5.0,70,0.00,,,0.01,1.000000,,2013-01-16 10:43:00,
2013-01-16 03:53:00,-5.0,-12.0,-100.00,NW,307,3.0,5.0,70,0.00,,,0.01,1.000000,,2013-01-16 10:53:00,
2013-01-16 04:02:00,-5.0,-12.0,-100.00,NW,307,3.0,5.0,70,0.00,,,0.01,1.000000,,2013-01-16 11:02:00,
2013-01-16 04:11:00,-5.0,-12.0,-100.00,NW,307,3.0,5.0,70,0.00,,,0.01,1.000000,,2013-01-16 11:11:00,
2013-01-16 04:33:00,-5.0,-13.0,-100.00,NW,305,2.0,5.0,69,0.00,,,0.01,1.000000,,2013-01-16 11:33:00,
2013-01-16 04:43:00,-5.0,-13.0,-100.00,NW,305,2.0,5.0,69,0.00,,,0.01,1.000000,,2013-01-16 11:43:00,
2013-01-16 04:53:00,-5.0,-13.0,-100.00,NW,305,2.0,5.0,69,0.00,,,0.01,1.000000,,2013-01-16 11:53:00,
2013-01-16 05:02:00,-5.0,-13.0,-100.00,NW,305,2.0,5.0,69,0.00,,,0.01,1.000000,,2013-01-16 12:02:00,
2013-01-16 05:12:00,-5.0,-13.0,-100.00,NW,305,2.0,5.0,69,0.00,,,0.01,1.000000,,2013-01-16 12:12:00,
2013-01-16 05:33:00,-5.0,-12.0,-100.00,WNW,292,2.0,4.0,70,0.00,,,0.01,1.000000,,2013-01-16 12:33:00,
2013-01-16 05:43:00,-5.0,-12.0,-100.00,WNW,292,2.0,4.0,70,0.00,,,0.01,1.000000,,2013-01-16 12:43:00,
2013-01-16 05:53:00,-5.0,-12.0,-100.00,WNW,292,2.0,4.0,70,0.00,,,0.01,1.000000,,2013-01-16 12:53:00,
2013-01-16 06:02:00,-5.0,-12.0,-100.00,WNW,292,2.0,4.0,70,0.00,,,0.01,1.000000,,2013-01-16 13:02:00,
2013-01-16 06:12:00,-5.0,-12.0,-100.00,WNW,292,2.0,4.0,70,0.00,,,0.01,1.000000,,2013-01-16 13:12:00,
2013-01-16 06:43:00,-5.0,-12.0,-100.00,NW,304,2.0,4.0,72,0.00,,,0.01,1.000000,,2013-01-16 13:43:00,
2013-01-16 06:53:00,-5.0,-12.0,-100.00,NW,304,2.0,4.0,72,0.00,,,0.01,1.000000,,2013-01-16 13:53:00,
2013-01-16 07:02:00,-5.0,-12.0,-100.00,NW,304,2.0,4.0,72,0.00,,,0.01,1.000000,,2013-01-16 14:02:00,
2013-01-16 07:12:00,-5.0,-12.0,-100.00,NW,304,2.0,4.0,72,0.00,,,0.01,1.000000,,2013-01-16 14:12:00,
2013-01-16 07:33:00,-6.0,-13.0,-100.00,NNW,327,2.0,4.0,70,0.00,,,0.01,1.000000,,2013-01-16 14:33:00,
2013-01-16 07:43:00,-6.0,-13.0,-100.00,NNW,327,2.0,4.0,70,0.00,,,0.01,1.000000,,2013-01-16 14:43:00,
2013-01-16 07:53:00,-6.0,-13.0,-100.00,NNW,327,2.0,4.0,70,0.00,,,0.01,1.000000,,2013-01-16 14:53:00,
2013-01-16 08:02:00,-6.0,-13.0,-100.00,NNW,327,2.0,4.0,70,0.00,,,0.01,1.000000,,2013-01-16 15:02:00,
2013-01-16 08:12:00,-6.0,-13.0,-100.00,NNW,327,2.0,4.0,70,0.00,,,0.01,1.000000,,2013-01-16 15:12:00,
2013-01-16 08:43:00,-2.0,-9.0,-100.00,NNW,328,2.0,4.0,71,0.00,,,0.00,52.000000,,2013-01-16 15:43:00,
2013-01-16 08:53:00,-2.0,-9.0,-100.00,NNW,328,2.0,4.0,71,0.00,,,0.00,52.000000,,2013-01-16 15:53:00,
2013-01-16 09:03:00,-2.0,-9.0,-100.00,NNW,328,2.0,4.0,71,0.00,,,0.00,52.000000,,2013-01-16 16:03:00,
2013-01-16 09:12:00,-2.0,-9.0,-100.00,NNW,328,2.0,4.0,71,0.00,,,0.00,52.000000,,2013-01-16 16:12:00,
2013-01-16 09:33:00,13.0,0.0,-100.00,NE,51,3.0,6.0,54,0.00,,,0.00,296.000000,,2013-01-16 16:33:00,
2013-01-16 10:33:00,18.0,1.0,-100.00,North,354,2.0,9.0,46,-99.99,,,0.00,501.000000,,2013-01-16 17:33:00,
2013-01-16 11:33:00,24.0,0.0,-100.00,ESE,104,2.0,5.0,35,-99.99,,,0.00,660.000000,,2013-01-16 18:33:00,
2013-01-16 12:33:00,28.0,2.0,-100.00,SE,145,3.0,7.0,32,-99.99,,,0.00,748.000000,,2013-01-16 19:33:00,
2013-01-16 13:43:00,30.0,2.0,-100.00,East,98,3.0,7.0,29,-99.99,,,0.00,761.000000,,2013-01-16 20:43:00,
2013-01-16 13:53:00,30.0,2.0,-100.00,East,98,3.0,7.0,29,-99.99,,,0.00,761.000000,,2013-01-16 20:53:00,
2013-01-16 14:43:00,31.0,2.0,-100.00,ESE,123,3.0,9.0,28,0.00,,,0.00,699.000000,,2013-01-16 21:43:00,
2013-01-16 14:53:00,31.0,2.0,-100.00,ESE,123,3.0,9.0,28,0.00,,,0.00,699.000000,,2013-01-16 21:53:00,
2013-01-16 15:43:00,32.0,3.0,-100.00,SW,236,3.0,11.0,29,0.00,,,0.00,563.000000,,2013-01-16 22:43:00,
2013-01-16 15:52:00,32.0,3.0,-100.00,SW,236,3.0,11.0,29,0.00,,,0.00,563.000000,,2013-01-16 22:52:00,
2013-01-16 16:33:00,30.0,3.0,-100.00,South,191,4.0,7.0,31,-99.99,,,0.00,366.000000,,2013-01-16 23:33:00,
2013-01-16 16:43:00,30.0,3.0,-100.00,South,191,4.0,7.0,31,-99.99,,,0.00,366.000000,,2013-01-16 23:43:00,
2013-01-16 16:53:00,30.0,3.0,-100.00,South,191,4.0,7.0,31,-99.99,,,0.00,366.000000,,2013-01-16 23:53:00,
2013-01-16 17:02:00,30.0,3.0,-100.00,South,191,4.0,7.0,31,-99.99,,,0.00,366.000000,,2013-01-17 00:02:00,
2013-01-16 17:12:00,30.0,3.0,-100.00,South,191,4.0,7.0,31,-99.99,,,0.00,366.000000,,2013-01-17 00:12:00,
2013-01-16 17:33:00,24.0,2.0,-100.00,SE,131,0.0,6.0,37,0.00,,,0.00,126.000000,,2013-01-17 00:33:00,
2013-01-16 17:42:00,24.0,2.0,-100.00,SE,131,0.0,6.0,37,0.00,,,0.00,126.000000,,2013-01-17 00:42:00,
2013-01-16 17:52:00,24.0,2.0,-100.00,SE,131,0.0,6.0,37,0.00,,,0.00,126.000000,,2013-01-17 00:52:00,
2013-01-16 18:02:00,24.0,2.0,-100.00,SE,131,0.0,6.0,37,0.00,,,0.00,126.000000,,2013-01-17 01:02:00,
2013-01-16 18:12:00,24.0,2.0,-100.00,SE,131,0.0,6.0,37,0.00,,,0.00,126.000000,,2013-01-17 01:12:00,
2013-01-16 18:33:00,11.0,-2.0,-100.00,NNW,331,1.0,2.0,54,0.00,,,0.00,2.000000,,2013-01-17 01:33:00,
2013-01-16 18:43:00,11.0,-2.0,-100.00,NNW,331,1.0,2.0,54,0.00,,,0.00,2.000000,,2013-01-17 01:43:00,
2013-01-16 18:52:00,11.0,-2.0,-100.00,NNW,331,1.0,2.0,54,0.00,,,0.00,2.000000,,2013-01-17 01:52:00,
2013-01-16 19:02:00,11.0,-2.0,-100.00,NNW,331,1.0,2.0,54,0.00,,,0.00,2.000000,,2013-01-17 02:02:00,
2013-01-16 19:12:00,11.0,-2.0,-100.00,NNW,331,1.0,2.0,54,0.00,,,0.00,2.000000,,2013-01-17 02:12:00,
2013-01-16 19:32:00,8.0,-3.0,-100.00,WNW,291,1.0,3.0,61,0.00,,,0.00,1.000000,,2013-01-17 02:32:00,
2013-01-16 19:43:00,8.0,-3.0,-100.00,WNW,291,1.0,3.0,61,0.00,,,0.00,1.000000,,2013-01-17 02:43:00,
2013-01-16 19:52:00,8.0,-3.0,-100.00,WNW,291,1.0,3.0,61,0.00,,,0.00,1.000000,,2013-01-17 02:52:00,
2013-01-16 20:02:00,8.0,-3.0,-100.00,WNW,291,1.0,3.0,61,0.00,,,0.00,1.000000,,2013-01-17 03:02:00,
2013-01-16 20:12:00,8.0,-3.0,-100.00,WNW,291,1.0,3.0,61,0.00,,,0.00,1.000000,,2013-01-17 03:12:00,
2013-01-16 20:33:00,4.0,-5.0,-100.00,NW,318,1.0,4.0,65,0.00,,,0.00,1.000000,,2013-01-17 03:33:00,
2013-01-16 20:43:00,4.0,-5.0,-100.00,NW,318,1.0,4.0,65,0.00,,,0.00,1.000000,,2013-01-17 03:43:00,
2013-01-16 20:52:00,4.0,-5.0,-100.00,NW,318,1.0,4.0,65,0.00,,,0.00,1.000000,,2013-01-17 03:52:00,
2013-01-16 21:02:00,4.0,-5.0,-100.00,NW,318,1.0,4.0,65,0.00,,,0.00,1.000000,,2013-01-17 04:02:00,
2013-01-16 21:12:00,4.0,-5.0,-100.00,NW,318,1.0,4.0,65,0.00,,,0.00,1.000000,,2013-01-17 04:12:00,
2013-01-16 21:33:00,2.0,-6.0,-100.00,NNW,342,1.0,3.0,70,0.00,,,0.00,1.000000,,2013-01-17 04:33:00,
2013-01-16 21:43:00,2.0,-6.0,-100.00,NNW,342,1.0,3.0,70,0.00,,,0.00,1.000000,,2013-01-17 04:43:00,
2013-01-16 21:52:00,2.0,-6.0,-100.00,NNW,342,1.0,3.0,70,0.00,,,0.00,1.000000,,2013-01-17 04:52:00,
2013-01-16 22:04:00,2.0,-6.0,-100.00,NNW,342,1.0,3.0,70,0.00,,,0.00,1.000000,,2013-01-17 05:04:00,
2013-01-16 22:12:00,2.0,-6.0,-100.00,NNW,342,1.0,3.0,70,0.00,,,0.00,1.000000,,2013-01-17 05:12:00,
2013-01-16 22:43:00,0.0,-7.0,-100.00,WNW,299,0.0,2.0,73,0.00,,,0.00,1.000000,,2013-01-17 05:43:00,
2013-01-16 22:53:00,0.0,-7.0,-100.00,WNW,299,0.0,2.0,73,0.00,,,0.00,1.000000,,2013-01-17 05:53:00,
2013-01-16 23:02:00,0.0,-7.0,-100.00,WNW,299,0.0,2.0,73,0.00,,,0.00,1.000000,,2013-01-17 06:02:00,
2013-01-16 23:11:00,0.0,-7.0,-100.00,WNW,299,0.0,2.0,73,0.00,,,0.00,1.000000,,2013-01-17 06:11:00,
2013-01-16 23:33:00,0.0,-6.0,-100.00,NW,325,1.0,2.0,75,0.00,,,-99.99,1.000000,,2013-01-17 06:33:00,
2013-01-16 23:42:00,0.0,-6.0,-100.00,NW,325,1.0,2.0,75,0.00,,,-99.99,1.000000,,2013-01-17 06:42:00,
2013-01-16 23:52:00,0.0,-6.0,-100.00,NW,325,1.0,2.0,75,0.00,,,-99.99,1.000000,,2013-01-17 06:52:00,